createdAt,value
2023-01-09T00:00:59.755Z,6.90
2023-01-09T00:03:26.741Z,6.90
2023-01-09T00:05:54.167Z,6.90
2023-01-09T00:08:21.081Z,6.80
2023-01-09T00:10:50.017Z,6.80
2023-01-09T00:13:18.261Z,6.80
2023-01-09T00:15:45.538Z,6.80
2023-01-09T00:18:12.730Z,6.70
2023-01-09T00:20:39.903Z,6.80
2023-01-09T00:23:07.763Z,6.70
2023-01-09T00:25:34.820Z,6.60
2023-01-09T00:28:01.749Z,6.70
2023-01-09T00:30:30.400Z,6.60
2023-01-09T00:32:57.380Z,6.60
2023-01-09T00:35:28.780Z,6.60
2023-01-09T00:37:55.715Z,6.60
2023-01-09T00:40:22.911Z,6.50
2023-01-09T00:42:56.431Z,6.50
2023-01-09T00:45:28.907Z,6.50
2023-01-09T00:48:03.460Z,6.40
2023-01-09T00:50:35.044Z,6.40
2023-01-09T00:53:08.387Z,6.40
2023-01-09T00:55:37.782Z,6.30
2023-01-09T00:58:05.143Z,6.40
2023-01-09T01:00:32.144Z,6.30
2023-01-09T01:02:59.280Z,6.30
2023-01-09T01:05:44.956Z,6.20
2023-01-09T01:08:17.950Z,6.20
2023-01-09T01:10:46.908Z,6.20
2023-01-09T01:13:14.872Z,6.10
2023-01-09T01:15:43.548Z,6.10
2023-01-09T01:18:12.141Z,6.10
2023-01-09T01:20:45.401Z,6.10
2023-01-09T01:23:12.499Z,6.00
2023-01-09T01:25:41.894Z,6.00
2023-01-09T01:28:10.374Z,6.00
2023-01-09T01:30:42.277Z,6.00
2023-01-09T01:33:10.746Z,6.00
2023-01-09T01:35:38.015Z,6.00
2023-01-09T01:38:05.641Z,6.00
2023-01-09T01:40:32.623Z,5.90
2023-01-09T01:42:59.699Z,6.00
2023-01-09T01:45:29.965Z,5.90
2023-01-09T01:48:19.914Z,5.90
2023-01-09T01:50:53.320Z,5.90
2023-01-09T01:53:23.158Z,5.90
2023-01-09T01:56:08.265Z,5.90
2023-01-09T01:58:40.391Z,5.90
2023-01-09T02:01:07.924Z,5.90
2023-01-09T02:03:36.583Z,5.90
2023-01-09T02:06:04.993Z,5.90
2023-01-09T02:08:32.575Z,5.80
2023-01-09T02:11:00.140Z,5.80
2023-01-09T02:13:27.936Z,5.80
2023-01-09T02:16:04.972Z,5.80
2023-01-09T02:19:00.386Z,5.80
2023-01-09T02:21:46.132Z,5.70
2023-01-09T02:24:54.430Z,5.70
2023-01-09T02:27:33.277Z,5.80
2023-01-09T02:30:26.004Z,5.70
2023-01-09T02:32:59.025Z,5.70
2023-01-09T02:35:39.540Z,5.70
2023-01-09T02:38:19.784Z,5.70
2023-01-09T02:40:55.776Z,5.70
2023-01-09T02:43:23.528Z,5.70
2023-01-09T02:45:50.539Z,5.70
2023-01-09T02:48:17.652Z,5.70
2023-01-09T02:50:50.280Z,5.70
2023-01-09T02:53:44.933Z,5.60
2023-01-09T02:56:59.026Z,5.60
2023-01-09T02:59:43.882Z,5.60
2023-01-09T03:02:20.422Z,5.60
2023-01-09T03:04:59.326Z,5.60
2023-01-09T03:07:40.927Z,5.60
2023-01-09T03:10:31.830Z,5.60
2023-01-09T03:13:00.662Z,5.60
2023-01-09T03:15:32.350Z,5.50
2023-01-09T03:18:00.445Z,5.60
2023-01-09T03:20:27.963Z,5.50
2023-01-09T03:23:02.125Z,5.50
2023-01-09T03:25:30.699Z,5.50
2023-01-09T03:28:01.295Z,5.50
2023-01-09T03:30:30.737Z,5.50
2023-01-09T03:32:58.589Z,5.50
2023-01-09T03:35:26.210Z,5.50
2023-01-09T03:37:53.209Z,5.50
2023-01-09T03:40:21.067Z,5.50
2023-01-09T03:42:48.238Z,5.50
2023-01-09T03:45:16.394Z,5.50
2023-01-09T03:47:43.389Z,5.60
2023-01-09T03:50:10.794Z,5.50
2023-01-09T03:52:37.793Z,5.50
2023-01-09T03:55:05.275Z,5.50
2023-01-09T03:57:32.248Z,5.50
2023-01-09T03:59:59.199Z,5.60
2023-01-09T04:02:26.115Z,5.70
2023-01-09T04:04:53.427Z,5.70
2023-01-09T04:07:20.439Z,5.70
2023-01-09T04:09:47.388Z,5.80
2023-01-09T04:12:14.403Z,5.80
2023-01-09T04:14:41.410Z,5.80
2023-01-09T04:17:08.376Z,5.90
2023-01-09T04:19:35.330Z,5.90
2023-01-09T04:22:02.248Z,6.00
2023-01-09T04:24:29.228Z,6.00
2023-01-09T04:26:56.731Z,6.00
2023-01-09T04:29:23.735Z,6.00
2023-01-09T04:31:50.794Z,6.00
2023-01-09T04:34:17.992Z,6.00
2023-01-09T04:36:44.984Z,6.10
2023-01-09T04:39:11.983Z,6.10
2023-01-09T04:41:50.813Z,6.10
2023-01-09T04:44:25.759Z,6.10
2023-01-09T04:46:54.949Z,6.10
2023-01-09T04:49:22.915Z,6.10
2023-01-09T04:51:49.983Z,6.10
2023-01-09T04:54:17.698Z,6.10
2023-01-09T04:56:44.683Z,6.10
2023-01-09T04:59:11.903Z,6.10
2023-01-09T05:01:39.216Z,6.20
2023-01-09T05:04:06.787Z,6.20
2023-01-09T05:06:34.413Z,6.20
2023-01-09T05:09:01.792Z,6.30
2023-01-09T05:11:28.824Z,6.30
2023-01-09T05:13:55.859Z,6.30
2023-01-09T05:16:22.833Z,6.30
2023-01-09T05:18:49.813Z,6.30
2023-01-09T05:21:16.833Z,6.40
2023-01-09T05:23:44.015Z,6.40
2023-01-09T05:26:10.912Z,6.50
2023-01-09T05:28:37.893Z,6.50
2023-01-09T05:31:04.949Z,6.60
2023-01-09T05:33:31.855Z,6.50
2023-01-09T05:35:58.841Z,6.60
2023-01-09T05:38:25.771Z,6.60
2023-01-09T05:40:52.791Z,6.70
2023-01-09T05:43:19.698Z,6.70
2023-01-09T05:45:46.728Z,6.70
2023-01-09T05:48:13.673Z,6.70
2023-01-09T05:50:40.965Z,6.80
2023-01-09T05:53:07.907Z,6.80
2023-01-09T05:55:35.103Z,6.80
2023-01-09T05:58:02.022Z,6.80
2023-01-09T06:00:28.996Z,6.80
2023-01-09T06:02:56.054Z,6.90
2023-01-09T06:05:23.106Z,6.90
2023-01-09T06:07:50.084Z,7.00
2023-01-09T06:10:17.367Z,7.00
2023-01-09T06:12:49.680Z,7.00
2023-01-09T06:15:17.391Z,7.00
2023-01-09T06:17:44.752Z,7.00
2023-01-09T06:20:12.180Z,7.00
2023-01-09T06:22:39.137Z,7.00
2023-01-09T06:25:06.592Z,7.00
2023-01-09T06:27:33.562Z,7.00
2023-01-09T06:30:00.689Z,7.00
2023-01-09T06:32:27.650Z,6.90
2023-01-09T06:34:54.574Z,6.90
2023-01-09T06:37:21.658Z,6.90
2023-01-09T06:39:48.692Z,6.90
2023-01-09T06:42:15.758Z,6.90
2023-01-09T06:44:42.888Z,6.90
2023-01-09T06:47:09.864Z,6.90
2023-01-09T06:49:36.958Z,6.90
2023-01-09T06:52:07.771Z,6.90
2023-01-09T06:54:35.522Z,6.90
2023-01-09T06:57:02.505Z,6.90
2023-01-09T06:59:29.409Z,6.90
2023-01-09T07:01:56.606Z,6.90
2023-01-09T07:04:23.719Z,6.90
2023-01-09T07:06:50.813Z,6.90
2023-01-09T07:09:17.757Z,6.90
2023-01-09T07:11:44.858Z,6.90
2023-01-09T07:14:11.831Z,6.90
2023-01-09T07:16:38.801Z,6.80
2023-01-09T07:19:05.749Z,6.80
2023-01-09T07:21:32.933Z,6.90
2023-01-09T07:24:00.132Z,6.80
2023-01-09T07:26:27.003Z,6.80
2023-01-09T07:28:54.633Z,6.80
2023-01-09T07:31:21.821Z,6.80
2023-01-09T07:33:48.763Z,6.70
2023-01-09T07:36:15.774Z,6.80
2023-01-09T07:38:42.813Z,6.70
2023-01-09T07:41:09.812Z,6.70
2023-01-09T07:43:38.133Z,6.80
2023-01-09T07:46:05.579Z,6.70
2023-01-09T07:48:33.151Z,6.70
2023-01-09T07:51:00.227Z,6.70
2023-01-09T07:53:27.350Z,6.70
2023-01-09T07:55:54.350Z,6.70
2023-01-09T07:58:21.320Z,6.70
2023-01-09T08:00:48.253Z,6.70
2023-01-09T08:03:15.242Z,6.70
2023-01-09T08:05:42.191Z,6.70
2023-01-09T08:08:09.144Z,6.70
2023-01-09T08:10:36.132Z,6.70
2023-01-09T08:13:03.103Z,6.80
2023-01-09T08:15:30.851Z,6.80
2023-01-09T08:17:57.834Z,6.80
2023-01-09T08:20:25.049Z,6.70
2023-01-09T08:22:53.579Z,6.70
2023-01-09T08:25:21.296Z,6.70
2023-01-09T08:27:48.501Z,6.70
2023-01-09T08:30:16.864Z,6.80
2023-01-09T08:32:48.208Z,6.80
2023-01-09T08:35:15.563Z,6.80
2023-01-09T08:37:47.240Z,6.80
2023-01-09T08:40:15.908Z,6.70
2023-01-09T08:43:01.813Z,6.80
2023-01-09T08:45:52.210Z,6.70
2023-01-09T08:48:19.344Z,6.70
2023-01-09T08:50:46.720Z,6.80
2023-01-09T08:53:13.857Z,6.80
2023-01-09T08:55:40.816Z,6.80
2023-01-09T08:58:08.135Z,6.90
2023-01-09T09:00:35.170Z,6.90
2023-01-09T09:03:02.370Z,6.90
2023-01-09T09:05:31.668Z,6.90
2023-01-09T09:07:59.560Z,7.00
2023-01-09T09:10:28.848Z,6.90
2023-01-09T09:12:58.709Z,7.00
2023-01-09T09:15:29.633Z,7.00
2023-01-09T09:18:02.307Z,6.90
2023-01-09T09:20:35.206Z,7.00
2023-01-09T09:23:02.550Z,7.00
2023-01-09T09:25:29.808Z,7.10
2023-01-09T09:27:56.814Z,7.10
2023-01-09T09:30:24.491Z,7.10
2023-01-09T09:32:51.471Z,7.20
2023-01-09T09:35:20.957Z,7.30
2023-01-09T09:37:59.746Z,7.30
2023-01-09T09:40:49.849Z,7.30
2023-01-09T09:43:56.846Z,7.30
2023-01-09T09:46:29.554Z,7.30
2023-01-09T09:49:05.571Z,7.30
2023-01-09T09:52:07.462Z,7.30
2023-01-09T09:54:40.955Z,7.40
2023-01-09T09:57:14.677Z,7.30
2023-01-09T09:59:43.137Z,7.30
2023-01-09T10:02:10.124Z,7.30
2023-01-09T10:04:48.927Z,7.30
2023-01-09T10:07:24.030Z,7.30
2023-01-09T10:10:05.845Z,7.30
2023-01-09T10:12:42.022Z,7.30
2023-01-09T10:15:24.877Z,7.20
2023-01-09T10:18:32.957Z,7.30
2023-01-09T10:21:45.984Z,7.30
2023-01-09T10:24:12.973Z,7.30
2023-01-09T10:26:47.821Z,7.40
2023-01-09T10:29:42.083Z,7.40
2023-01-09T10:32:27.858Z,7.40
2023-01-09T10:35:23.240Z,7.50
2023-01-09T10:37:53.319Z,7.50
2023-01-09T10:40:26.192Z,7.60
2023-01-09T10:43:13.167Z,7.60
2023-01-09T10:45:54.595Z,7.60
2023-01-09T10:48:38.876Z,7.70
2023-01-09T10:51:29.991Z,7.70
2023-01-09T10:53:57.072Z,7.80
2023-01-09T10:56:24.059Z,7.80
2023-01-09T10:58:52.793Z,7.80
2023-01-09T11:01:27.618Z,7.80
2023-01-09T11:03:55.016Z,7.90
2023-01-09T11:06:29.096Z,7.90
2023-01-09T11:08:57.492Z,8.00
2023-01-09T11:11:36.878Z,8.00
2023-01-09T11:14:14.128Z,8.00
2023-01-09T11:16:57.458Z,8.00
2023-01-09T11:19:25.956Z,8.00
2023-01-09T11:22:09.414Z,8.00
2023-01-09T11:24:36.407Z,8.00
2023-01-09T11:27:24.168Z,8.00
2023-01-09T11:30:29.519Z,8.00
2023-01-09T11:32:57.921Z,8.00
2023-01-09T11:35:34.808Z,8.00
2023-01-09T11:38:10.627Z,8.00
2023-01-09T11:40:59.730Z,8.00
2023-01-09T11:43:39.141Z,8.10
2023-01-09T11:46:10.049Z,8.10
2023-01-09T11:48:55.462Z,8.30
2023-01-09T11:51:26.782Z,8.30
2023-01-09T11:54:20.919Z,8.30
2023-01-09T11:56:49.280Z,8.40
2023-01-09T11:59:22.055Z,8.50
2023-01-09T12:02:13.270Z,8.50
2023-01-09T12:04:56.267Z,8.60
2023-01-09T12:07:41.243Z,8.50
2023-01-09T12:10:32.927Z,8.50
2023-01-09T12:13:20.862Z,8.30
2023-01-09T12:16:07.470Z,8.40
2023-01-09T12:19:02.549Z,8.50
2023-01-09T12:21:40.087Z,8.50
2023-01-09T12:24:31.617Z,8.40
2023-01-09T12:27:07.619Z,8.40
2023-01-09T12:29:49.969Z,8.40
2023-01-09T12:32:31.695Z,8.40
2023-01-09T12:35:05.485Z,8.30
2023-01-09T12:38:05.365Z,8.30
2023-01-09T12:40:54.163Z,8.20
2023-01-09T12:44:01.286Z,8.10
2023-01-09T12:46:42.030Z,8.10
2023-01-09T12:49:37.642Z,8.10
2023-01-09T12:52:23.423Z,8.10
2023-01-09T12:55:03.517Z,8.20
2023-01-09T12:57:36.567Z,8.20
2023-01-09T13:00:16.247Z,8.20
2023-01-09T13:02:57.566Z,8.10
2023-01-09T13:05:34.824Z,8.10
2023-01-09T13:08:27.523Z,8.10
2023-01-09T13:11:30.391Z,8.00
2023-01-09T13:14:31.176Z,8.10
2023-01-09T13:17:00.003Z,8.10
2023-01-09T13:19:39.566Z,8.10
2023-01-09T13:22:07.828Z,8.10
2023-01-09T13:24:53.414Z,8.10
2023-01-09T13:27:23.305Z,8.10
2023-01-09T13:30:13.661Z,8.20
2023-01-09T13:32:41.938Z,8.30
2023-01-09T13:35:15.794Z,8.50
2023-01-09T13:37:49.382Z,8.50
2023-01-09T13:40:19.307Z,8.50
2023-01-09T13:43:03.088Z,8.40
2023-01-09T13:45:39.792Z,8.30
2023-01-09T13:48:17.629Z,8.30
2023-01-09T13:50:47.012Z,8.30
2023-01-09T13:53:19.829Z,8.40
2023-01-09T13:55:59.589Z,8.30
2023-01-09T13:58:50.922Z,8.30
2023-01-09T14:01:38.298Z,8.30
2023-01-09T14:04:14.894Z,8.30
2023-01-09T14:06:44.930Z,8.30
2023-01-09T14:09:22.227Z,8.30
2023-01-09T14:12:06.284Z,8.30
2023-01-09T14:14:35.518Z,8.20
2023-01-09T14:17:14.704Z,8.20
2023-01-09T14:19:42.422Z,8.10
2023-01-09T14:22:31.335Z,8.10
2023-01-09T14:25:08.352Z,8.10
2023-01-09T14:28:06.894Z,8.10
2023-01-09T14:30:36.904Z,8.00
2023-01-09T14:33:18.940Z,8.00
2023-01-09T14:35:55.300Z,8.00
2023-01-09T14:38:51.364Z,8.00
2023-01-09T14:41:46.857Z,7.90
2023-01-09T14:44:30.401Z,7.80
2023-01-09T14:47:05.230Z,7.80
2023-01-09T14:49:43.596Z,7.80
2023-01-09T14:52:31.980Z,7.80
2023-01-09T14:55:01.961Z,7.80
2023-01-09T14:57:31.951Z,7.70
2023-01-09T14:59:59.948Z,7.70
2023-01-09T15:02:32.176Z,7.80
2023-01-09T15:05:06.113Z,7.70
2023-01-09T15:07:40.574Z,7.70
2023-01-09T15:10:15.217Z,7.70
2023-01-09T15:12:46.265Z,7.70
2023-01-09T15:15:15.742Z,7.70
2023-01-09T15:17:49.946Z,7.70
2023-01-09T15:20:27.220Z,7.60
2023-01-09T15:22:55.696Z,7.60
2023-01-09T15:25:37.706Z,7.70
2023-01-09T15:28:23.197Z,7.70
2023-01-09T15:31:15.161Z,7.60
2023-01-09T15:33:45.354Z,7.60
2023-01-09T15:36:24.894Z,7.50
2023-01-09T15:38:52.800Z,7.60
2023-01-09T15:41:43.933Z,7.50
2023-01-09T15:44:22.704Z,7.50
2023-01-09T15:46:50.953Z,7.50
2023-01-09T15:49:19.533Z,7.50
2023-01-09T15:51:47.374Z,7.50
2023-01-09T15:54:23.522Z,7.50
2023-01-09T15:56:50.504Z,7.40
2023-01-09T15:59:28.358Z,7.30
2023-01-09T16:02:24.377Z,7.40
2023-01-09T16:04:54.764Z,7.40
2023-01-09T16:07:21.876Z,7.40
2023-01-09T16:09:54.172Z,7.40
2023-01-09T16:12:24.685Z,7.40
2023-01-09T16:14:57.839Z,7.50
2023-01-09T16:17:26.712Z,7.50
2023-01-09T16:19:59.515Z,7.50
2023-01-09T16:22:32.385Z,7.40
2023-01-09T16:25:22.452Z,7.40
2023-01-09T16:28:26.971Z,7.40
2023-01-09T16:31:03.443Z,7.40
2023-01-09T16:33:31.677Z,7.40
2023-01-09T16:35:59.250Z,7.40
2023-01-09T16:38:27.298Z,7.40
2023-01-09T16:41:25.547Z,7.40
2023-01-09T16:43:52.832Z,7.40
2023-01-09T16:46:21.343Z,7.40
2023-01-09T16:48:49.100Z,7.40
2023-01-09T16:51:21.916Z,7.40
2023-01-09T16:53:49.743Z,7.40
2023-01-09T16:56:28.015Z,7.40
2023-01-09T16:58:55.339Z,7.40
2023-01-09T17:01:23.220Z,7.40
2023-01-09T17:03:50.690Z,7.40
2023-01-09T17:06:29.346Z,7.40
2023-01-09T17:08:57.403Z,7.30
2023-01-09T17:11:31.709Z,7.20
2023-01-09T17:13:59.763Z,7.20
2023-01-09T17:16:28.073Z,7.20
2023-01-09T17:18:55.266Z,7.20
2023-01-09T17:21:25.338Z,7.20
2023-01-09T17:24:12.654Z,7.10
2023-01-09T17:27:01.747Z,7.10
2023-01-09T17:29:30.144Z,7.10
2023-01-09T17:31:58.353Z,7.10
2023-01-09T17:34:25.958Z,7.10
2023-01-09T17:36:55.730Z,7.10
2023-01-09T17:39:23.905Z,7.00
2023-01-09T17:41:50.893Z,7.00
2023-01-09T17:44:18.022Z,7.00
2023-01-09T17:46:45.200Z,7.00
2023-01-09T17:49:21.515Z,7.00
2023-01-09T17:51:48.800Z,6.90
2023-01-09T17:54:16.104Z,7.00
2023-01-09T17:56:46.594Z,7.00
2023-01-09T17:59:15.465Z,7.00
2023-01-09T18:01:43.941Z,7.00
2023-01-09T18:04:11.803Z,7.00
2023-01-09T18:06:38.955Z,7.00
2023-01-09T18:09:06.914Z,7.00
2023-01-09T18:11:34.635Z,7.10
2023-01-09T18:14:01.581Z,7.10
2023-01-09T18:16:29.165Z,7.00
2023-01-09T18:18:58.155Z,7.00
2023-01-09T18:21:26.659Z,7.10
2023-01-09T18:23:54.298Z,7.10
2023-01-09T18:26:22.216Z,7.10
2023-01-09T18:28:56.441Z,7.10
2023-01-09T18:31:26.020Z,7.10
2023-01-09T18:33:54.791Z,7.20
2023-01-09T18:36:24.400Z,7.10
2023-01-09T18:38:53.340Z,7.10
2023-01-09T18:41:21.207Z,7.10
2023-01-09T18:43:53.143Z,7.20
2023-01-09T18:46:24.187Z,7.20
2023-01-09T18:48:53.288Z,7.20
2023-01-09T18:51:21.376Z,7.20
2023-01-09T18:53:49.585Z,7.10
2023-01-09T18:56:17.275Z,7.10
2023-01-09T18:58:44.275Z,7.10
2023-01-09T19:01:12.188Z,7.10
2023-01-09T19:03:39.371Z,7.10
2023-01-09T19:06:06.667Z,7.00
2023-01-09T19:08:35.199Z,7.00
2023-01-09T19:11:02.634Z,7.10
2023-01-09T19:13:35.215Z,7.00
2023-01-09T19:16:03.290Z,7.00
2023-01-09T19:18:36.381Z,7.00
2023-01-09T19:21:14.599Z,6.90
2023-01-09T19:23:43.249Z,7.00
2023-01-09T19:26:17.768Z,7.00
2023-01-09T19:28:46.601Z,7.00
2023-01-09T19:31:14.604Z,7.10
2023-01-09T19:33:41.930Z,7.00
2023-01-09T19:36:09.599Z,7.00
2023-01-09T19:38:36.931Z,7.00
2023-01-09T19:41:14.257Z,7.00
2023-01-09T19:43:42.215Z,7.10
2023-01-09T19:46:15.391Z,7.10
2023-01-09T19:48:42.959Z,7.20
2023-01-09T19:51:10.977Z,7.30
2023-01-09T19:53:38.240Z,7.30
2023-01-09T19:56:20.024Z,7.40
2023-01-09T19:58:55.176Z,7.50
2023-01-09T20:01:27.562Z,7.50
2023-01-09T20:03:56.640Z,7.50
2023-01-09T20:06:26.362Z,7.50
2023-01-09T20:08:55.807Z,7.50
2023-01-09T20:11:25.756Z,7.50
2023-01-09T20:13:52.921Z,7.50
2023-01-09T20:16:22.411Z,7.50
2023-01-09T20:18:49.621Z,7.50
2023-01-09T20:21:18.669Z,7.50
2023-01-09T20:23:45.771Z,7.50
2023-01-09T20:26:12.894Z,7.50
2023-01-09T20:28:39.983Z,7.50
2023-01-09T20:31:10.659Z,7.50
2023-01-09T20:33:38.350Z,7.50
2023-01-09T20:36:06.360Z,7.50
2023-01-09T20:38:33.547Z,7.50
2023-01-09T20:41:11.162Z,7.50
2023-01-09T20:43:40.167Z,7.50
2023-01-09T20:46:07.699Z,7.40
2023-01-09T20:48:34.908Z,7.40
2023-01-09T20:51:07.101Z,7.40
2023-01-09T20:53:34.414Z,7.40
2023-01-09T20:56:07.045Z,7.40
2023-01-09T20:58:34.785Z,7.40
2023-01-09T21:01:07.996Z,7.40
2023-01-09T21:03:35.181Z,7.40
2023-01-09T21:06:07.320Z,7.30
2023-01-09T21:08:35.975Z,7.30
2023-01-09T21:11:07.065Z,7.30
2023-01-09T21:13:34.763Z,7.30
2023-01-09T21:16:03.843Z,7.30
2023-01-09T21:18:34.030Z,7.30
2023-01-09T21:21:13.637Z,7.20
2023-01-09T21:23:45.968Z,7.20
2023-01-09T21:26:14.970Z,7.20
2023-01-09T21:28:45.073Z,7.20
2023-01-09T21:31:13.807Z,7.20
2023-01-09T21:33:41.243Z,7.20
2023-01-09T21:36:09.658Z,7.20
2023-01-09T21:38:37.341Z,7.10
2023-01-09T21:41:22.952Z,7.10
2023-01-09T21:44:08.864Z,7.10
2023-01-09T21:46:54.901Z,7.10
2023-01-09T21:49:25.394Z,7.00
2023-01-09T21:51:54.035Z,7.00
2023-01-09T21:54:23.357Z,7.00
2023-01-09T21:56:51.773Z,6.90
2023-01-09T21:59:19.580Z,6.90
2023-01-09T22:01:48.717Z,6.90
2023-01-09T22:04:17.334Z,6.90
2023-01-09T22:06:44.625Z,6.80
2023-01-09T22:09:14.226Z,6.80
2023-01-09T22:11:43.305Z,6.80
2023-01-09T22:14:15.830Z,6.80
2023-01-09T22:16:44.484Z,6.70
2023-01-09T22:19:12.851Z,6.70
2023-01-09T22:21:40.250Z,6.60
2023-01-09T22:24:07.864Z,6.60
2023-01-09T22:26:35.332Z,6.60
2023-01-09T22:29:02.635Z,6.60
2023-01-09T22:31:29.885Z,6.50
2023-01-09T22:33:58.934Z,6.50
2023-01-09T22:36:27.570Z,6.40
2023-01-09T22:38:56.065Z,6.30
2023-01-09T22:41:24.519Z,6.30
2023-01-09T22:43:52.005Z,6.20
2023-01-09T22:46:19.247Z,6.20
2023-01-09T22:48:47.192Z,6.20
2023-01-09T22:51:17.085Z,6.10
2023-01-09T22:53:45.343Z,6.00
2023-01-09T22:56:15.616Z,5.90
2023-01-09T22:58:43.293Z,5.90
2023-01-09T23:01:14.916Z,5.90
2023-01-09T23:03:42.071Z,5.90
2023-01-09T23:06:15.361Z,5.90
2023-01-09T23:08:43.465Z,5.80
2023-01-09T23:11:39.249Z,5.80
2023-01-09T23:14:06.353Z,5.70
2023-01-09T23:16:33.487Z,5.70
2023-01-09T23:19:00.843Z,5.70
2023-01-09T23:21:30.150Z,5.70
2023-01-09T23:23:58.037Z,5.60
2023-01-09T23:26:25.181Z,5.70
2023-01-09T23:28:52.302Z,5.70
2023-01-09T23:31:19.584Z,5.70
2023-01-09T23:33:46.597Z,5.70
2023-01-09T23:36:13.687Z,5.80
2023-01-09T23:38:40.848Z,5.80
2023-01-09T23:41:08.783Z,5.80
2023-01-09T23:43:36.070Z,5.90
2023-01-09T23:46:03.182Z,5.90
2023-01-09T23:48:30.374Z,5.90
2023-01-09T23:50:57.441Z,5.90
2023-01-09T23:53:24.697Z,5.90
2023-01-09T23:55:55.592Z,5.90
2023-01-09T23:58:23.134Z,5.90
